Time;durP1;ratioP1;P1;durP2;ratioP2;P2;SDS_P1;SDS_P2;PMS_P1;PMS_P2;Temp;Humidity;BMP_temperature;BMP_pressure;BME280_temperature;BME280_humidity;BME280_pressure;Samples;Min_cycle;Max_cycle;Signal;HPM_P1;HPM_P2
2022/12/31 00:01:01;;;;;;;19.27;11.27;;;;;;;3.61;74.11;99262.94;5073019;28;20526;-55
2022/12/31 00:03:26;;;;;;;20.02;11.43;;;;;;;3.61;74.55;99265.59;5073130;28;20050;-55
2022/12/31 00:05:52;;;;;;;18.25;11.57;;;;;;;3.63;74.02;99258.44;5072540;28;20033;-56
2022/12/31 00:08:18;;;;;;;16.35;11.07;;;;;;;3.59;73.81;99249.81;5071898;28;20020;-57
2022/12/31 00:10:43;;;;;;;18.17;11.30;;;;;;;3.63;74.43;99255.78;5072772;28;20048;-54
2022/12/31 00:13:10;;;;;;;18.13;11.18;;;;;;;3.65;74.46;99256.53;5072752;28;20176;-58
2022/12/31 00:15:37;;;;;;;19.90;11.63;;;;;;;3.65;74.47;99248.59;5072527;28;20037;-54
2022/12/31 00:18:03;;;;;;;21.98;11.93;;;;;;;3.67;74.24;99252.00;5071593;28;20329;-58
2022/12/31 00:20:28;;;;;;;18.42;10.43;;;;;;;3.60;73.87;99240.94;5072595;28;20044;-54
2022/12/31 00:22:54;;;;;;;19.05;11.93;;;;;;;3.66;74.26;99242.34;5072644;28;20112;-55
2022/12/31 00:25:19;;;;;;;16.73;10.75;;;;;;;3.66;74.49;99240.56;5071893;28;20428;-57
2022/12/31 00:27:45;;;;;;;15.95;10.43;;;;;;;3.58;74.20;99235.72;5072141;28;20107;-55
2022/12/31 00:30:11;;;;;;;18.00;11.45;;;;;;;3.60;74.22;99238.28;5071830;28;20049;-57
2022/12/31 00:32:36;;;;;;;18.08;11.13;;;;;;;3.57;73.99;99231.38;5071730;28;20117;-55
2022/12/31 00:35:02;;;;;;;17.73;10.65;;;;;;;3.63;74.19;99239.91;5072525;28;20029;-54
2022/12/31 00:37:28;;;;;;;16.90;10.82;;;;;;;3.59;74.82;99228.66;5072489;28;20085;-56
2022/12/31 00:39:54;;;;;;;16.27;10.60;;;;;;;3.48;74.79;99207.25;5071997;28;20037;-55
2022/12/31 00:42:19;;;;;;;17.02;10.50;;;;;;;3.42;74.62;99200.56;5072010;28;20440;-53
2022/12/31 00:44:44;;;;;;;18.85;10.60;;;;;;;3.65;73.95;99235.38;5070998;28;20025;-54
2022/12/31 00:47:10;;;;;;;14.13;9.60;;;;;;;3.65;74.44;99243.31;5072428;28;20048;-54
2022/12/31 00:49:35;;;;;;;16.10;10.30;;;;;;;3.48;74.65;99213.41;5072122;28;20372;-55
2022/12/31 00:52:01;;;;;;;16.15;10.38;;;;;;;3.55;74.75;99227.97;5072227;28;20057;-53
2022/12/31 00:54:26;;;;;;;15.43;9.68;;;;;;;3.63;74.21;99239.91;5072119;28;20025;-57
2022/12/31 00:56:52;;;;;;;15.68;10.45;;;;;;;3.59;74.16;99229.47;5071687;28;20025;-58
2022/12/31 00:59:17;;;;;;;14.50;9.32;;;;;;;3.58;74.13;99235.72;5071880;28;20029;-57
2022/12/31 01:01:42;;;;;;;16.23;10.45;;;;;;;3.55;73.87;99238.56;5072057;28;20055;-56
2022/12/31 01:04:14;;;;;;;13.27;8.98;;;;;;;3.55;73.75;99233.25;5072242;28;20090;-58
2022/12/31 01:06:41;;;;;;;12.63;9.05;;;;;;;3.51;74.43;99234.41;5071253;28;20085;-55
2022/12/31 01:09:08;;;;;;;14.30;9.27;;;;;;;3.28;74.32;99196.13;5071868;28;20037;-52
2022/12/31 01:11:34;;;;;;;14.63;9.50;;;;;;;3.28;74.28;99206.69;5072590;28;20441;-55
2022/12/31 01:14:09;;;;;;;14.05;9.02;;;;;;;3.44;74.04;99241.03;5071720;28;20093;-55
2022/12/31 01:16:43;;;;;;;13.43;8.88;;;;;;;3.47;73.62;99227.59;5072101;28;20033;-54
2022/12/31 01:19:11;;;;;;;13.85;9.05;;;;;;;3.40;73.69;99234.22;5071906;28;20039;-54
2022/12/31 01:21:39;;;;;;;14.60;8.77;;;;;;;3.34;74.26;99230.13;5072058;28;20036;-57
2022/12/31 01:24:05;;;;;;;14.25;9.10;;;;;;;3.34;74.52;99234.56;5071930;28;20499;-57
2022/12/31 01:26:31;;;;;;;13.18;8.75;;;;;;;3.35;73.82;99241.56;5071738;28;20036;-55
2022/12/31 01:28:56;;;;;;;14.77;9.10;;;;;;;3.30;74.34;99232.09;5072139;28;20081;-58
2022/12/31 01:31:23;;;;;;;14.68;9.05;;;;;;;3.32;74.17;99241.75;5073369;28;20099;-56
2022/12/31 01:33:49;;;;;;;13.27;9.20;;;;;;;3.30;73.94;99245.34;5075173;28;20056;-57
2022/12/31 01:36:21;;;;;;;13.10;8.85;;;;;;;3.33;73.90;99246.09;5075641;28;20119;-56
2022/12/31 01:38:46;;;;;;;13.20;8.18;;;;;;;3.27;74.11;99234.94;5075684;28;20052;-57
2022/12/31 01:41:14;;;;;;;13.10;8.75;;;;;;;3.30;74.43;99247.16;5075363;28;20067;-50
2022/12/31 01:43:48;;;;;;;14.70;9.10;;;;;;;3.32;74.48;99250.53;5075094;28;20115;-51
2022/12/31 01:46:26;;;;;;;11.45;8.35;;;;;;;3.35;73.94;99246.84;5074709;28;20028;-51
2022/12/31 01:48:56;;;;;;;11.85;8.48;;;;;;;3.25;73.98;99244.75;5075551;28;20032;-53
2022/12/31 01:51:24;;;;;;;13.93;8.95;;;;;;;3.22;74.12;99244.94;5075000;28;20029;-56
2022/12/31 01:53:50;;;;;;;14.82;8.77;;;;;;;3.14;74.41;99229.53;5074691;28;20521;-54
2022/12/31 01:56:18;;;;;;;12.20;8.27;;;;;;;3.20;74.63;99241.56;5074999;28;20037;-55
2022/12/31 01:58:46;;;;;;;12.07;8.27;;;;;;;3.20;74.65;99240.69;5074961;28;20040;-53
2022/12/31 02:01:17;;;;;;;12.02;8.38;;;;;;;3.19;74.25;99237.19;5074889;28;20028;-53
2022/12/31 02:03:42;;;;;;;12.20;9.00;;;;;;;3.15;74.29;99239.16;5074804;28;20036;-56
2022/12/31 02:06:19;;;;;;;14.57;8.63;;;;;;;3.21;74.15;99245.91;5075057;28;20028;-55
2022/12/31 02:08:44;;;;;;;15.05;9.80;;;;;;;2.91;74.15;99196.53;5075167;28;20024;-55
2022/12/31 02:11:33;;;;;;;14.07;9.50;;;;;;;3.15;73.99;99231.22;5074802;28;20107;-53
2022/12/31 02:14:03;;;;;;;15.38;9.82;;;;;;;3.06;73.67;99236.22;5074242;28;20241;-53
2022/12/31 02:16:48;;;;;;;15.68;9.35;;;;;;;3.03;74.11;99231.09;5073817;28;20032;-55
2022/12/31 02:19:45;;;;;;;15.02;9.02;;;;;;;3.07;73.60;99228.19;5074707;28;20436;-54
2022/12/31 02:22:38;;;;;;;13.73;9.05;;;;;;;2.98;74.32;99234.00;5053144;28;20072;-56
2022/12/31 02:25:12;;;;;;;14.63;9.23;;;;;;;2.92;74.40;99240.53;5073950;28;20094;-54
2022/12/31 02:27:41;;;;;;;13.45;9.35;;;;;;;2.87;74.86;99242.56;5074365;28;20036;-56
2022/12/31 02:30:14;;;;;;;13.40;9.00;;;;;;;2.89;74.78;99238.03;5074138;28;20044;-55
2022/12/31 02:33:03;;;;;;;12.93;8.85;;;;;;;2.95;74.93;99239.47;5074569;28;20044;-55
2022/12/31 02:35:40;;;;;;;13.13;8.85;;;;;;;2.94;74.62;99237.78;5074327;28;20028;-57
2022/12/31 02:38:10;;;;;;;13.65;8.70;;;;;;;2.86;74.93;99239.09;5074276;28;20409;-56
2022/12/31 02:40:37;;;;;;;11.82;7.95;;;;;;;2.84;74.94;99248.03;5074456;28;20060;-57
2022/12/31 02:43:03;;;;;;;13.50;9.02;;;;;;;2.84;75.01;99250.69;5073862;28;20028;-53
2022/12/31 02:45:35;;;;;;;15.23;9.00;;;;;;;2.85;75.36;99249.75;5073787;28;20369;-52
2022/12/31 02:48:20;;;;;;;14.07;9.10;;;;;;;2.89;74.95;99251.25;5073725;28;20126;-58
2022/12/31 02:51:00;;;;;;;12.23;8.67;;;;;;;2.94;75.03;99243.94;5074250;28;20075;-55
2022/12/31 02:54:03;;;;;;;13.23;9.15;;;;;;;2.95;75.39;99258.00;5073984;28;20071;-56
2022/12/31 02:56:54;;;;;;;12.95;8.65;;;;;;;2.98;74.84;99252.53;5074029;28;20099;-56
2022/12/31 03:02:18;;;;;;;14.37;9.13;;;;;;;2.65;75.12;99222.69;5073237;28;20020;-55
2022/12/31 03:04:55;;;;;;;14.27;9.43;;;;;;;2.89;74.93;99256.56;5073868;28;20320;-57
2022/12/31 03:07:26;;;;;;;12.75;8.20;;;;;;;2.80;74.64;99252.69;5073678;28;20445;-54
2022/12/31 03:09:52;;;;;;;12.00;8.30;;;;;;;2.41;74.46;99199.38;5073134;28;20043;-55
2022/12/31 03:15:18;;;;;;;13.35;8.48;;;;;;;2.68;74.82;99246.31;5073166;28;20028;-55
2022/12/31 03:17:54;;;;;;;13.60;8.50;;;;;;;2.75;74.82;99267.94;5073409;28;20360;-53
2022/12/31 03:23:12;;;;;;;13.90;8.75;;;;;;;2.72;74.83;99255.75;5073547;28;20036;-52
2022/12/31 03:25:38;;;;;;;14.27;9.15;;;;;;;2.52;75.50;99225.16;5073637;28;20029;-54
2022/12/31 03:28:06;;;;;;;13.32;8.90;;;;;;;2.67;75.11;99251.66;5073102;28;20422;-56
2022/12/31 03:30:33;;;;;;;13.27;8.80;;;;;;;2.67;75.05;99251.66;5072893;28;20049;-56
2022/12/31 03:32:59;;;;;;;14.13;8.35;;;;;;;2.71;74.66;99264.63;5073343;28;20548;-56
2022/12/31 03:35:26;;;;;;;13.00;8.02;;;;;;;2.67;75.28;99251.66;5073104;28;20548;-55
2022/12/31 03:37:52;;;;;;;16.23;9.10;;;;;;;2.70;75.20;99265.56;5072780;28;20449;-55
2022/12/31 03:40:21;;;;;;;14.98;8.93;;;;;;;2.67;75.41;99257.81;5071293;28;20402;-56
2022/12/31 03:42:46;;;;;;;13.70;8.77;;;;;;;2.69;75.13;99271.78;5071839;28;20101;-58
2022/12/31 03:45:12;;;;;;;11.82;8.25;;;;;;;2.63;75.24;99258.06;5073289;28;20433;-55
2022/12/31 03:47:38;;;;;;;12.38;8.88;;;;;;;2.72;75.37;99274.25;5072536;28;20075;-56
2022/12/31 03:50:05;;;;;;;14.95;9.13;;;;;;;2.71;75.36;99264.63;5072770;28;20697;-56
2022/12/31 03:52:31;;;;;;;14.23;9.20;;;;;;;2.68;75.39;99264.81;5072897;28;20036;-54
2022/12/31 03:54:56;;;;;;;15.75;9.77;;;;;;;2.68;75.53;99262.16;5072316;28;20395;-54
2022/12/31 03:57:22;;;;;;;15.13;9.48;;;;;;;2.68;75.39;99263.94;5072458;28;20516;-54
2022/12/31 03:59:48;;;;;;;14.57;9.80;;;;;;;2.68;75.06;99258.66;5072309;28;20036;-54
2022/12/31 04:02:13;;;;;;;14.15;9.27;;;;;;;2.71;75.64;99264.63;5073219;28;20174;-52
2022/12/31 04:04:39;;;;;;;13.70;9.20;;;;;;;2.75;75.20;99275.03;5072763;28;20444;-54
2022/12/31 04:07:04;;;;;;;16.42;9.88;;;;;;;2.71;75.60;99263.75;5072322;28;20170;-55
2022/12/31 04:09:29;;;;;;;12.50;9.18;;;;;;;2.75;74.80;99267.09;5072276;28;20107;-56
2022/12/31 04:11:55;;;;;;;14.38;8.85;;;;;;;2.78;75.86;99285.41;5072325;28;20025;-55
2022/12/31 04:14:20;;;;;;;14.82;9.25;;;;;;;2.79;75.58;99288.00;5072453;28;20417;-56
2022/12/31 04:16:46;;;;;;;14.43;9.52;;;;;;;2.80;75.38;99296.75;5072551;28;20035;-56
2022/12/31 04:19:12;;;;;;;14.27;9.00;;;;;;;2.82;75.86;99302.81;5072305;28;20029;-56
2022/12/31 04:21:37;;;;;;;14.35;9.13;;;;;;;2.82;75.91;99292.22;5072026;28;20091;-54
2022/12/31 04:24:03;;;;;;;12.48;9.15;;;;;;;2.84;75.27;99308.84;5072154;28;20052;-54
2022/12/31 04:26:29;;;;;;;15.15;9.18;;;;;;;2.79;75.87;99290.63;5071913;28;20385;-56
2022/12/31 04:28:55;;;;;;;14.50;9.70;;;;;;;2.80;75.53;99288.81;5071132;28;20463;-54
2022/12/31 04:31:20;;;;;;;14.23;8.77;;;;;;;2.81;75.39;99295.81;5072271;28;20144;-55
2022/12/31 04:33:46;;;;;;;14.77;9.30;;;;;;;2.84;75.56;99309.72;5072475;28;20056;-57
2022/12/31 04:36:11;;;;;;;17.48;8.70;;;;;;;2.79;75.68;99301.19;5072212;28;20028;-57
2022/12/31 04:38:36;;;;;;;13.70;8.85;;;;;;;2.84;76.02;99307.06;5072561;28;20059;-54
2022/12/31 04:43:58;;;;;;;13.80;8.73;;;;;;;2.84;75.65;99307.06;5063153;28;20045;-53
2022/12/31 04:46:29;;;;;;;16.05;8.95;;;;;;;2.93;76.01;99321.56;5072159;28;20048;-56
2022/12/31 04:48:55;;;;;;;14.20;9.18;;;;;;;2.86;75.60;99318.41;5072264;28;20020;-53
2022/12/31 04:51:22;;;;;;;14.55;9.88;;;;;;;2.74;75.86;99303.22;5071943;28;20032;-55
2022/12/31 04:53:48;;;;;;;15.13;9.63;;;;;;;2.89;75.93;99333.22;5072337;28;20079;-55
2022/12/31 04:56:15;;;;;;;14.82;9.70;;;;;;;2.87;75.66;99348.34;5072086;28;20056;-53
2022/12/31 04:58:40;;;;;;;14.10;10.30;;;;;;;2.90;76.14;99349.97;5072016;28;20504;-51
2022/12/31 05:01:06;;;;;;;14.80;10.18;;;;;;;2.91;76.04;99346.38;5072078;28;20112;-54
2022/12/31 05:03:32;;;;;;;15.60;10.18;;;;;;;2.92;75.83;99362.19;5071868;28;20517;-56
2022/12/31 05:06:02;;;;;;;16.63;10.38;;;;;;;2.97;75.85;99356.59;5074629;28;20487;-55
2022/12/31 05:08:28;;;;;;;15.55;10.05;;;;;;;2.95;75.85;99362.00;5074737;28;20032;-55
2022/12/31 05:10:54;;;;;;;16.73;10.43;;;;;;;2.97;75.62;99360.13;5075974;28;20032;-56
2022/12/31 05:13:19;;;;;;;13.57;9.80;;;;;;;2.97;75.96;99354.81;5075619;28;20035;-56
2022/12/31 05:15:45;;;;;;;14.30;9.80;;;;;;;2.98;76.08;99376.81;5075955;28;20039;-54
2022/12/31 05:18:11;;;;;;;15.23;9.50;;;;;;;2.94;75.73;99362.06;5075948;28;20039;-51
2022/12/31 05:20:37;;;;;;;14.05;9.38;;;;;;;2.92;75.29;99372.75;5075919;28;20025;-58
2022/12/31 05:23:02;;;;;;;14.88;9.27;;;;;;;2.86;75.88;99381.00;5074882;28;20119;-56
2022/12/31 05:25:28;;;;;;;13.43;9.25;;;;;;;2.82;75.64;99377.69;5075290;28;20055;-54
2022/12/31 05:27:53;;;;;;;13.70;8.90;;;;;;;2.81;75.73;99396.28;5075872;28;20055;-55
2022/12/31 05:30:20;;;;;;;13.98;9.13;;;;;;;2.79;76.24;99387.59;5075029;28;20094;-53
2022/12/31 05:32:45;;;;;;;14.88;9.75;;;;;;;2.80;75.99;99395.44;5075532;28;20032;-57
2022/12/31 05:35:12;;;;;;;13.75;9.50;;;;;;;2.89;76.02;99414.38;5075216;28;20098;-55
2022/12/31 05:37:38;;;;;;;12.65;9.27;;;;;;;2.91;75.79;99417.78;5075020;28;20070;-57
2022/12/31 05:40:05;;;;;;;13.98;8.95;;;;;;;2.70;76.20;99371.31;5075550;28;20032;-55
2022/12/31 05:42:31;;;;;;;13.07;9.48;;;;;;;2.92;76.32;99420.34;5075049;28;20510;-57
2022/12/31 05:44:56;;;;;;;13.68;8.25;;;;;;;2.92;75.56;99414.19;5075092;28;20028;-56
2022/12/31 05:47:22;;;;;;;11.07;8.43;;;;;;;2.88;75.67;99410.84;5075267;28;20139;-56
2022/12/31 05:49:47;;;;;;;13.27;9.75;;;;;;;2.85;75.61;99419.81;5075866;28;20025;-57
2022/12/31 05:52:13;;;;;;;14.23;9.38;;;;;;;2.87;76.05;99423.25;5074914;28;20097;-56
2022/12/31 05:54:38;;;;;;;11.57;8.55;;;;;;;2.89;75.66;99427.59;5074780;28;20060;-53
2022/12/31 05:57:04;;;;;;;11.88;8.88;;;;;;;2.93;75.58;99437.91;5074397;28;20105;-50
2022/12/31 05:59:29;;;;;;;12.52;8.75;;;;;;;2.87;75.97;99438.25;5075184;28;20112;-54
2022/12/31 06:01:55;;;;;;;11.32;8.48;;;;;;;2.93;75.67;99448.50;5074902;28;20436;-55
2022/12/31 06:04:21;;;;;;;14.18;8.32;;;;;;;2.94;75.56;99457.28;5074922;28;20467;-57
2022/12/31 06:06:47;;;;;;;13.30;8.77;;;;;;;2.94;75.68;99458.13;5074972;28;20119;-53
2022/12/31 06:09:14;;;;;;;11.80;8.52;;;;;;;2.72;75.74;99424.06;5074541;28;20396;-54
2022/12/31 06:11:39;;;;;;;11.73;8.63;;;;;;;2.92;75.77;99461.78;5074555;28;20032;-55
2022/12/31 06:14:04;;;;;;;11.38;7.57;;;;;;;2.89;75.79;99462.81;5074607;28;20033;-54
2022/12/31 06:16:30;;;;;;;12.48;8.10;;;;;;;2.87;75.71;99469.97;5073608;28;20024;-57
2022/12/31 06:18:55;;;;;;;10.25;7.25;;;;;;;2.68;76.02;99439.25;5074561;28;20094;-56
2022/12/31 06:21:21;;;;;;;10.10;6.97;;;;;;;2.88;76.13;99476.97;5074517;28;20036;-59
2022/12/31 06:23:47;;;;;;;11.40;7.20;;;;;;;2.92;75.63;99494.41;5074058;28;20048;-53
2022/12/31 06:26:14;;;;;;;9.18;6.95;;;;;;;2.94;75.89;99500.44;5074455;28;20028;-56
2022/12/31 06:28:40;;;;;;;12.90;7.20;;;;;;;2.97;75.63;99502.94;5074237;28;20028;-57
2022/12/31 06:31:08;;;;;;;8.77;6.25;;;;;;;2.95;75.35;99499.50;5074309;28;20051;-58
2022/12/31 06:33:34;;;;;;;9.00;6.32;;;;;;;2.97;75.19;99505.56;5074671;28;20040;-58
2022/12/31 06:36:01;;;;;;;8.82;6.75;;;;;;;2.97;75.33;99513.50;5073988;28;20045;-52
2022/12/31 06:38:29;;;;;;;9.38;6.57;;;;;;;2.98;75.30;99531.09;5073288;28;20036;-54
2022/12/31 06:40:55;;;;;;;8.80;6.53;;;;;;;3.03;75.49;99533.47;5074388;28;20484;-55
2022/12/31 06:43:21;;;;;;;8.73;6.65;;;;;;;3.07;75.44;99529.72;5073138;28;20036;-53
2022/12/31 06:45:46;;;;;;;7.78;6.30;;;;;;;3.08;75.53;99541.16;5073970;28;20055;-56
2022/12/31 06:48:12;;;;;;;9.35;6.25;;;;;;;3.13;75.02;99550.56;5071455;28;20891;-55
2022/12/31 06:50:38;;;;;;;9.07;6.60;;;;;;;3.18;75.20;99555.59;5073221;28;20032;-56
2022/12/31 06:53:03;;;;;;;9.07;6.53;;;;;;;3.15;75.08;99555.78;5073422;28;20119;-55
2022/12/31 06:55:29;;;;;;;8.38;6.25;;;;;;;3.22;74.92;99565.06;5073453;28;20104;-52
2022/12/31 06:57:55;;;;;;;8.40;6.00;;;;;;;3.20;74.43;99561.66;5073652;28;20040;-54
2022/12/31 07:00:21;;;;;;;8.27;6.15;;;;;;;3.08;74.59;99562.31;5073159;28;20032;-56
2022/12/31 07:03:00;;;;;;;10.43;6.47;;;;;;;3.14;74.61;99557.56;5073141;28;20368;-52
2022/12/31 07:05:44;;;;;;;7.13;5.63;;;;;;;3.05;74.42;99567.78;5073548;28;20028;-56
2022/12/31 07:08:24;;;;;;;8.25;6.05;;;;;;;3.16;74.64;99565.41;5073105;28;20388;-56
2022/12/31 07:10:53;;;;;;;8.38;6.00;;;;;;;3.14;74.14;99567.28;5072728;28;20032;-55
2022/12/31 07:13:46;;;;;;;7.72;5.88;;;;;;;3.18;74.58;99568.84;5072880;28;20032;-57
2022/12/31 07:16:17;;;;;;;8.63;6.28;;;;;;;3.14;74.27;99572.59;5073579;28;20032;-53
2022/12/31 07:18:50;;;;;;;8.75;6.30;;;;;;;3.14;74.31;99573.44;5072321;28;20039;-54
2022/12/31 07:21:30;;;;;;;7.35;5.72;;;;;;;3.16;74.64;99566.25;5072156;28;20440;-58
2022/12/31 07:23:56;;;;;;;10.27;6.40;;;;;;;3.20;74.58;99577.53;5073653;28;20028;-56
2022/12/31 07:26:40;;;;;;;8.75;6.22;;;;;;;3.26;73.91;99581.66;5073324;28;20055;-52
2022/12/31 07:29:20;;;;;;;7.97;6.13;;;;;;;3.27;74.36;99583.34;5071963;28;20177;-55
2022/12/31 07:32:13;;;;;;;9.18;6.47;;;;;;;3.39;74.48;99580.03;5072924;28;20056;-53
2022/12/31 07:35:10;;;;;;;10.00;5.97;;;;;;;3.48;73.40;99585.75;5073047;28;20490;-55
2022/12/31 07:37:55;;;;;;;9.05;6.22;;;;;;;3.43;73.68;99589.50;5072462;28;20051;-54
2022/12/31 07:41:08;;;;;;;9.80;5.67;;;;;;;3.51;73.70;99598.84;5072818;28;20039;-55
2022/12/31 07:44:11;;;;;;;6.97;5.40;;;;;;;3.57;73.14;99604.63;5059757;28;20037;-55
2022/12/31 07:46:42;;;;;;;8.45;6.00;;;;;;;3.55;72.90;99619.72;5072352;28;20106;-55
2022/12/31 07:49:12;;;;;;;8.70;5.95;;;;;;;3.28;72.96;99585.06;5072480;28;20055;-56
2022/12/31 07:51:38;;;;;;;11.77;6.60;;;;;;;3.47;72.86;99618.44;5072099;28;20058;-55
2022/12/31 07:54:04;;;;;;;11.88;6.53;;;;;;;3.52;73.01;99611.97;5072283;28;20035;-58
2022/12/31 07:56:30;;;;;;;9.25;6.97;;;;;;;3.61;72.65;99617.69;5072436;28;20040;-53
2022/12/31 07:59:38;;;;;;;8.10;6.22;;;;;;;3.71;72.99;99619.75;5072179;28;20032;-56
2022/12/31 08:02:15;;;;;;;8.10;6.25;;;;;;;3.59;72.71;99592.16;5048608;28;20044;-54
2022/12/31 08:05:02;;;;;;;7.35;5.72;;;;;;;3.86;72.59;99627.78;5072145;28;20111;-55
2022/12/31 08:07:50;;;;;;;7.90;6.03;;;;;;;3.89;71.78;99627.59;5071648;28;20028;-54
2022/12/31 08:10:29;;;;;;;7.82;6.03;;;;;;;3.95;72.17;99637.84;5070371;28;20119;-57
2022/12/31 08:13:00;;;;;;;8.30;6.43;;;;;;;3.95;72.13;99632.56;5072089;28;20024;-53
2022/12/31 08:15:26;;;;;;;7.65;5.63;;;;;;;3.96;71.15;99638.72;5072150;28;20074;-52
2022/12/31 08:17:52;;;;;;;7.43;5.95;;;;;;;3.97;71.65;99629.81;5071928;28;20028;-56
2022/12/31 08:20:18;;;;;;;7.57;5.60;;;;;;;3.66;71.57;99581.25;5072072;28;20078;-58
2022/12/31 08:22:55;;;;;;;8.65;5.53;;;;;;;4.06;71.35;99650.50;5071965;28;20024;-56
2022/12/31 08:25:42;;;;;;;7.85;5.68;;;;;;;3.99;70.47;99651.78;5071577;28;20036;-54
2022/12/31 08:28:29;;;;;;;7.72;5.65;;;;;;;3.94;71.21;99645.91;5071771;28;20085;-55
2022/12/31 08:31:07;;;;;;;8.00;5.80;;;;;;;3.97;71.53;99643.06;5071767;28;20130;-56
2022/12/31 08:33:54;;;;;;;8.30;5.55;;;;;;;3.98;71.45;99639.47;5071737;28;20055;-52
2022/12/31 08:36:33;;;;;;;7.18;5.45;;;;;;;3.97;71.11;99643.91;5071972;28;20387;-53
2022/12/31 08:39:23;;;;;;;7.75;5.40;;;;;;;4.02;71.22;99654.25;5071426;28;20039;-53
2022/12/31 08:41:52;;;;;;;8.65;6.00;;;;;;;3.99;70.59;99659.72;5071364;28;20047;-56
2022/12/31 08:44:38;;;;;;;8.60;5.70;;;;;;;3.87;71.33;99627.72;5072075;28;20039;-59
2022/12/31 08:47:50;;;;;;;7.68;5.78;;;;;;;4.09;71.42;99644.19;5071215;28;20032;-55
2022/12/31 08:50:17;;;;;;;7.70;5.53;;;;;;;3.87;70.38;99622.41;5068562;28;20040;-59
2022/12/31 08:52:43;;;;;;;7.00;5.72;;;;;;;4.04;70.45;99640.94;5071490;28;20427;-55
2022/12/31 08:55:17;;;;;;;9.25;5.80;;;;;;;4.09;70.46;99645.00;5071211;28;20032;-56
2022/12/31 08:58:31;;;;;;;8.63;5.75;;;;;;;4.13;69.93;99651.88;5071668;28;20086;-52
2022/12/31 09:00:58;;;;;;;8.52;5.60;;;;;;;4.07;70.65;99646.06;5061487;28;20481;-57
2022/12/31 09:03:49;;;;;;;8.38;5.95;;;;;;;4.15;71.07;99657.94;5070535;28;20028;-54
2022/12/31 09:06:26;;;;;;;9.93;6.13;;;;;;;4.16;71.18;99656.13;5051266;28;20029;-54
2022/12/31 09:09:14;;;;;;;9.57;5.68;;;;;;;4.19;70.61;99663.91;5051428;28;20181;-55
2022/12/31 09:11:45;;;;;;;7.45;5.65;;;;;;;4.23;70.39;99672.53;5051885;28;20167;-54
2022/12/31 09:14:23;;;;;;;8.02;5.50;;;;;;;4.25;70.55;99676.81;5050299;28;20422;-55
2022/12/31 09:17:39;;;;;;;7.50;5.45;;;;;;;4.31;70.93;99683.53;5051303;28;20067;-56
2022/12/31 09:20:05;;;;;;;8.50;5.78;;;;;;;4.09;70.55;99662.72;5024276;28;20041;-58
2022/12/31 09:22:31;;;;;;;9.80;6.88;;;;;;;4.18;69.94;99687.84;5013312;28;20045;-57
2022/12/31 09:24:56;;;;;;;8.85;6.03;;;;;;;4.14;70.20;99695.97;5051672;28;20120;-57
2022/12/31 09:27:39;;;;;;;7.63;5.70;;;;;;;4.21;70.80;99685.03;5071133;28;20059;-56
2022/12/31 09:30:10;;;;;;;9.90;6.15;;;;;;;4.22;71.17;99697.34;5071467;28;20033;-58
2022/12/31 09:32:56;;;;;;;9.90;6.50;;;;;;;4.31;70.30;99689.72;5071315;28;20051;-53
2022/12/31 09:35:52;;;;;;;9.63;7.10;;;;;;;4.41;70.78;99687.41;5068878;28;20042;-57
2022/12/31 09:38:33;;;;;;;11.73;6.95;;;;;;;4.43;69.78;99690.81;5071175;28;20047;-53
2022/12/31 09:41:33;;;;;;;13.05;6.50;;;;;;;4.43;70.30;99697.91;5071808;28;20090;-56
2022/12/31 09:44:24;;;;;;;10.18;6.07;;;;;;;4.50;69.47;99703.72;5034612;28;20134;-59
2022/12/31 09:47:17;;;;;;;9.00;6.10;;;;;;;4.44;69.63;99704.91;5067281;28;20028;-53
2022/12/31 09:50:16;;;;;;;8.40;5.70;;;;;;;4.43;69.95;99709.38;5071395;28;20040;-59
2022/12/31 09:53:07;;;;;;;10.05;6.13;;;;;;;4.43;69.79;99697.91;5073315;28;20111;-55
2022/12/31 09:55:35;;;;;;;8.23;5.43;;;;;;;4.38;69.32;99703.47;5074615;28;20028;-58
2022/12/31 09:58:23;;;;;;;7.45;5.28;;;;;;;4.51;70.27;99716.03;5074809;28;20036;-56
2022/12/31 10:01:05;;;;;;;6.57;4.78;;;;;;;4.53;68.96;99727.41;5074060;28;20028;-54
2022/12/31 10:04:04;;;;;;;6.38;4.88;;;;;;;4.50;68.74;99735.53;5074642;28;20036;-58
2022/12/31 10:06:38;;;;;;;7.15;5.10;;;;;;;4.31;69.49;99747.16;5074528;28;20043;-52
2022/12/31 10:09:04;;;;;;;6.82;4.53;;;;;;;4.24;69.41;99751.09;5074340;28;20123;-52
2022/12/31 10:11:51;;;;;;;6.22;4.43;;;;;;;4.11;70.32;99757.09;5074448;28;20124;-57
2022/12/31 10:14:28;;;;;;;6.38;4.13;;;;;;;3.98;70.19;99727.78;5074367;28;20119;-56
2022/12/31 10:17:15;;;;;;;6.50;4.68;;;;;;;4.14;70.50;99758.69;5072801;28;20235;-58
2022/12/31 10:19:43;;;;;;;6.38;4.35;;;;;;;4.04;70.17;99762.81;5073852;28;20040;-52
2022/12/31 10:22:29;;;;;;;7.28;5.20;;;;;;;4.11;70.18;99758.88;5074046;28;20037;-56
2022/12/31 10:25:21;;;;;;;7.75;5.15;;;;;;;4.13;70.56;99760.50;5073963;28;20033;-53
2022/12/31 10:28:14;;;;;;;7.50;5.15;;;;;;;4.12;70.36;99760.59;5065927;28;20421;-53
2022/12/31 10:30:51;;;;;;;9.95;5.38;;;;;;;4.08;70.50;99756.41;5074435;28;20048;-52
2022/12/31 10:33:35;;;;;;;8.65;5.05;;;;;;;4.07;70.27;99758.19;5073912;28;20041;-55
2022/12/31 10:36:28;;;;;;;7.38;5.07;;;;;;;4.05;69.98;99757.41;5074359;28;20094;-56
2022/12/31 10:39:27;;;;;;;7.82;4.30;;;;;;;4.02;70.03;99755.81;5074396;28;20033;-55
2022/12/31 10:42:11;;;;;;;6.00;4.45;;;;;;;3.92;70.18;99761.69;5074127;28;20067;-54
2022/12/31 10:45:03;;;;;;;5.97;4.22;;;;;;;4.05;70.04;99761.88;5073905;28;20036;-57
2022/12/31 10:48:01;;;;;;;6.85;4.43;;;;;;;4.11;70.69;99748.28;5074195;28;20037;-55
2022/12/31 10:50:44;;;;;;;7.00;4.47;;;;;;;4.08;69.91;99748.44;5073495;28;20040;-57
2022/12/31 10:53:28;;;;;;;6.78;4.35;;;;;;;4.13;69.87;99752.56;5073981;28;20036;-56
2022/12/31 10:56:27;;;;;;;6.82;4.20;;;;;;;4.29;70.10;99757.00;5073536;28;20029;-55
2022/12/31 10:59:13;;;;;;;6.88;4.90;;;;;;;4.34;69.80;99767.34;5055095;28;20227;-58
2022/12/31 11:01:47;;;;;;;8.43;5.35;;;;;;;4.32;68.71;99772.72;5073149;28;20479;-58
2022/12/31 11:04:37;;;;;;;7.32;5.07;;;;;;;4.40;69.61;99781.13;5073351;28;20056;-56
2022/12/31 11:07:38;;;;;;;8.77;5.55;;;;;;;4.27;69.46;99777.44;5073682;28;20560;-56
2022/12/31 11:10:27;;;;;;;9.80;5.80;;;;;;;4.12;68.82;99761.44;5072475;28;20131;-55
2022/12/31 11:13:25;;;;;;;10.93;6.45;;;;;;;4.25;69.01;99798.72;5073038;28;20439;-56
2022/12/31 11:15:56;;;;;;;8.95;5.05;;;;;;;4.26;68.72;99804.88;5073267;28;20040;-56
2022/12/31 11:18:46;;;;;;;8.10;5.28;;;;;;;4.19;68.92;99811.47;5073070;28;20047;-57
2022/12/31 11:21:24;;;;;;;7.53;4.60;;;;;;;4.12;69.62;99811.78;5066965;28;20044;-55
2022/12/31 11:24:04;;;;;;;7.28;4.68;;;;;;;4.16;69.31;99823.06;5073448;28;20369;-57
2022/12/31 11:27:00;;;;;;;5.47;4.32;;;;;;;4.18;69.23;99820.34;5072415;28;20467;-55
2022/12/31 11:29:41;;;;;;;;;;;;;;;4.38;70.16;99814.81;5072252;28;20111;-59
2022/12/31 11:32:54;;;;;;;4.78;3.75;;;;;;;4.31;68.70;99818.72;5072409;28;19932;-55
2022/12/31 11:35:20;;;;;;;5.82;3.75;;;;;;;4.14;69.15;99823.16;5011195;28;20096;-55
2022/12/31 11:37:53;;;;;;;6.28;4.10;;;;;;;4.11;69.16;99831.28;5057575;28;20128;-54
2022/12/31 11:40:31;;;;;;;6.32;4.07;;;;;;;4.14;69.18;99840.84;5072610;28;20025;-55
2022/12/31 11:43:18;;;;;;;6.22;4.20;;;;;;;4.11;68.76;99857.78;5072752;28;20105;-55
2022/12/31 11:46:15;;;;;;;5.50;3.90;;;;;;;4.14;69.50;99862.91;5065674;28;20076;-57
2022/12/31 11:49:18;;;;;;;6.93;4.20;;;;;;;4.10;68.86;99861.38;5072572;28;20047;-56
2022/12/31 11:51:46;;;;;;;8.77;5.35;;;;;;;4.02;68.71;99860.91;5071082;28;20452;-56
2022/12/31 11:54:36;;;;;;;7.82;5.22;;;;;;;3.94;68.46;99865.75;5072725;28;20492;-53
2022/12/31 11:57:11;;;;;;;8.48;6.07;;;;;;;3.87;69.48;99867.88;5072600;28;20387;-55
2022/12/31 11:59:36;;;;;;;8.15;5.50;;;;;;;3.75;69.00;99877.31;5072423;28;20032;-58
2022/12/31 12:02:25;;;;;;;8.98;5.78;;;;;;;3.73;69.63;99879.19;5071945;28;20030;-56
2022/12/31 12:04:52;;;;;;;8.18;5.30;;;;;;;3.74;69.94;99880.88;5072240;28;20040;-54
2022/12/31 12:07:18;;;;;;;7.80;5.47;;;;;;;3.73;69.34;99876.53;5072324;28;20066;-56
2022/12/31 12:09:45;;;;;;;10.85;5.85;;;;;;;3.71;70.17;99881.03;5071319;28;20570;-55
2022/12/31 12:12:10;;;;;;;7.28;5.03;;;;;;;3.68;69.91;99878.56;5072442;28;20113;-56
2022/12/31 12:14:38;;;;;;;6.32;5.13;;;;;;;3.54;69.98;99858.94;5072208;28;20052;-54
2022/12/31 12:17:15;;;;;;;7.45;5.15;;;;;;;3.75;70.47;99892.34;5072242;28;20057;-56
2022/12/31 12:19:45;;;;;;;6.53;4.72;;;;;;;3.72;70.29;99888.06;5072324;28;20079;-57